Reinbeck, IA

6:07 PM CDT on August 29, 2014 (GMT -0500)
Scout Creek | Change Station
CLOSE
Current Station
Personal Weather Station
Location: Reinbeck, IA
Elevation: 942 ft
Nearby Weather Stations
Active Advisory: Special Statement Active Notice: Record Report

Elev 942 ft 42.34 °N, 92.55 °W | Updated 1 minute ago

Thunderstorm
Thunderstorm
69.4 °F
Feels Like 69.4 °F
N
9.4
Wind Variable Wind from South

Today
High -- | Low -- °F
--% Chance of Precip.
Yesterday
High -- | Low -- °F
Precip. -- in
6:32 AM 7:49 PM
Waxing Crescent, 17% visible
Pressure 29.76 in
Visibility 4.0 miles
Clouds Few 5500 ft
Mostly Cloudy 10000 ft
Mostly Cloudy 12000 ft
Dew Point 67 °F
Humidity 92%
Rainfall 0.38 in
Snow Depth Not available.
UV 1 out of 12
Pollen 3.50 out of 12
Air Quality Not available.
Flu Activity Not available.
METAR KALO 292254Z 18006KT 4SM RA FEW055 BKN100 BKN120 21/18 A2977 RMK AO2 PK WND 22029/2157 WSHFT 2154 LTG DSNT ALQDS RAB26 TSE24 SLP078 P0003 T02110183

More Conditions Fewer Conditions

Pressure 29.76 in
Visibility 4.0 miles
Clouds Few 5500 ft
Mostly Cloudy 10000 ft
Mostly Cloudy 12000 ft
Dew Point 67 °F
Humidity 92%
Rainfall 0.38 in
Snow Depth Not available.
UV 1 out of 12
Pollen 3.50 out of 12
Air Quality Not available.
Flu Activity Not available.
METAR KALO 292254Z 18006KT 4SM RA FEW055 BKN100 BKN120 21/18 A2977 RMK AO2 PK WND 22029/2157 WSHFT 2154 LTG DSNT ALQDS RAB26 TSE24 SLP078 P0003 T02110183

More Conditions Fewer Conditions

10-Day Weather Forecast

Almanac

Astronomy

Aug. 29, 2014 Rise Set
Actual Time 6:32 AM CDT 7:49 PM CDT
Civil Twilight 6:03 AM CDT 8:18 PM CDT
Nautical Twilight 5:28 AM CDT 8:52 PM CDT
Astronomical Twilight 4:51 AM CDT 9:29 PM CDT
Moon 10:27 AM CDT 9:41 PM CDT
Length of Visible Light 14h 14m
Length of Day
13h 16m
Tomorrow will be 2m 43s shorter.
Waxing Crescent, 17% of the Moon is Illuminated
Today
Waxing Crescent
Sep 2
First Quarter
Sep 8
Full
Sep 15
Last Quarter
Sep 24
New

Today's Extremes

State Highs State Lows

Community

WunderPhotos

Upload Photos

1,748,363 photos uploaded!

Nearby

Snow Depth

Station Depth Elevation
No new snow has been reported.

Earthquake Activity

City Distance Mag. Time & Date
No recent earthquake activity has been reported nearby.
Minimum magnitude displayed is 2.5.

Coastal Water Temperatures

Place Temperature
No Stations Reporting

Nearby Weather Stations